Williams Acres, New Mexico
Current Conditions -  °F | °C
As of 3:53 PM on Monday 24 Nov 2014 (Local Time) from KGUP Reporting Station
Broken Clouds Broken Clouds  
Wind Chill: 27°   Ceiling: 8000
Heat Index: 38°   Visibility: 10mi
Dew Point:   Wind: 22mph
Humidity: 24%   Direction: 350°N
Pressure: 30.2"   Gusts: 35mph
Location:  35.4315°N, 108.724°W
Report Text: KGUP 242253Z AUTO 35019G30KT 10SM BKN080 BKN095 03/M16 A3020 RMK AO2 PK WND 01030/2246 SLP280 T00331156
Loading
Personal Weather Stations






























Interactive Weather Map New forecast layout! Learn more

10-Day Weather Forecast

Advertisements
Track Severe Weather on mobile